Altisurface de La Taillade

FR-0290 · Cantal, Alvernia-Rodano-Alpi, Francia

Storia di METAR FR-0290 · Altisurface de La Taillade

Di seguito sono riportati i METAR degli ultimi giorni. Seleziona un anno per sfogliare i METAR più vecchi, dall'anno 2007 in poi.

28 febbraio 2024

Tempo Codice Tempo meteorologico Temp. Vista Base nuvolosa Vento METAR/SPECI
11:30
M
6 °C 10 km+ 2.300 ft 280° 280° 12 kt METAR LFCR 281030Z AUTO 28012KT 9999 FEW015 BKN023 OVC031 06/03 Q1021 NOSIG